TimeEDT,TemperatureF,Dew PointF,Humidity,Sea Level PressureIn,VisibilityMPH,Wind Direction,Wind SpeedMPH,Gust SpeedMPH,PrecipitationIn,Events,Conditions,WindDirDegrees,DateUTC
12:15 AM,34.9,32.0,89,30.31,10.0,Calm,Calm,-,N/A,,Clear,0,2013-10-29 04:15:00
12:35 AM,33.8,31.1,90,30.31,10.0,Calm,Calm,-,N/A,,Clear,0,2013-10-29 04:35:00
12:55 AM,33.8,31.5,91,30.31,10.0,Calm,Calm,-,N/A,,Clear,0,2013-10-29 04:55:00
1:15 AM,33.8,31.1,90,30.31,10.0,East,3.5,-,N/A,,Clear,80,2013-10-29 05:15:00
1:35 AM,34.5,32.0,90,30.31,7.0,ENE,3.5,-,N/A,,Clear,70,2013-10-29 05:35:00
1:55 AM,34.9,32.0,89,30.32,10.0,Calm,Calm,-,N/A,,Clear,0,2013-10-29 05:55:00
2:15 AM,34.9,32.0,89,30.31,7.0,East,3.5,-,N/A,,Clear,80,2013-10-29 06:15:00
2:35 AM,38.5,34.0,84,30.32,10.0,Calm,Calm,-,N/A,,Clear,0,2013-10-29 06:35:00
2:55 AM,40.5,33.1,75,30.32,10.0,East,3.5,-,N/A,,Clear,100,2013-10-29 06:55:00
3:15 AM,39.2,32.0,75,30.32,7.0,Calm,Calm,-,N/A,,Clear,0,2013-10-29 07:15:00
3:35 AM,36.1,30.9,81,30.32,10.0,Calm,Calm,-,N/A,,Clear,0,2013-10-29 07:35:00
3:55 AM,33.4,30.2,88,30.32,7.0,Calm,Calm,-,N/A,,Clear,0,2013-10-29 07:55:00
4:15 AM,34.0,31.3,90,30.32,10.0,Calm,Calm,-,N/A,,Clear,0,2013-10-29 08:15:00
4:35 AM,34.5,31.1,87,30.31,10.0,ENE,3.5,-,N/A,,Clear,60,2013-10-29 08:35:00
4:55 AM,33.1,29.8,88,30.31,10.0,East,3.5,-,N/A,,Clear,90,2013-10-29 08:55:00
5:15 AM,34.7,30.7,85,30.31,10.0,ENE,3.5,-,N/A,,Clear,60,2013-10-29 09:15:00
5:35 AM,32.5,29.5,88,30.31,7.0,Calm,Calm,-,N/A,,Clear,0,2013-10-29 09:35:00
5:55 AM,33.1,30.2,89,30.32,7.0,Calm,Calm,-,N/A,,Clear,0,2013-10-29 09:55:00
6:15 AM,35.2,32.0,88,30.33,7.0,ENE,3.5,-,N/A,,Clear,60,2013-10-29 10:15:00
6:35 AM,32.0,28.8,88,30.34,5.0,Calm,Calm,-,N/A,,Clear,0,2013-10-29 10:35:00
6:55 AM,33.4,30.7,90,30.33,5.0,Calm,Calm,-,N/A,,Clear,0,2013-10-29 10:55:00
7:15 AM,34.0,31.6,91,30.33,4.0,East,3.5,-,N/A,,Clear,80,2013-10-29 11:15:00
7:35 AM,35.8,32.9,89,30.33,4.0,East,4.6,-,N/A,,Clear,80,2013-10-29 11:35:00
7:55 AM,35.6,32.4,88,30.34,3.0,Calm,Calm,-,N/A,,Clear,0,2013-10-29 11:55:00
8:15 AM,34.0,31.6,91,30.34,2.0,Calm,Calm,-,N/A,,Clear,0,2013-10-29 12:15:00
8:35 AM,35.8,32.9,89,30.33,1.8,Calm,Calm,-,N/A,,Mist,0,2013-10-29 12:35:00
8:55 AM,36.3,33.3,89,30.33,1.8,Calm,Calm,-,N/A,,Mist,0,2013-10-29 12:55:00
9:15 AM,38.5,35.6,89,30.34,2.5,East,3.5,-,N/A,,Clear,80,2013-10-29 13:15:00
9:35 AM,40.1,36.9,88,30.34,4.0,Calm,Calm,-,N/A,,Clear,0,2013-10-29 13:35:00
9:55 AM,41.5,37.9,87,30.36,4.0,Calm,Calm,-,N/A,,Clear,0,2013-10-29 13:55:00
10:15 AM,42.8,38.1,84,30.36,5.0,East,3.5,-,N/A,,Haze,100,2013-10-29 14:15:00
10:35 AM,44.2,38.5,80,30.36,5.0,East,3.5,-,N/A,,Haze,100,2013-10-29 14:35:00
10:55 AM,45.5,38.5,76,30.34,7.0,East,4.6,-,N/A,,Clear,90,2013-10-29 14:55:00
11:15 AM,46.0,37.6,72,30.34,10.0,East,3.5,-,N/A,,Clear,100,2013-10-29 15:15:00
11:35 AM,46.9,37.8,70,30.34,7.0,East,4.6,-,N/A,,Clear,100,2013-10-29 15:35:00
11:55 AM,47.7,37.4,68,30.34,10.0,ESE,3.5,-,N/A,,Clear,110,2013-10-29 15:55:00
12:15 PM,48.4,37.6,66,30.34,10.0,East,4.6,-,N/A,,Clear,100,2013-10-29 16:15:00
12:35 PM,49.3,38.3,66,30.34,10.0,ESE,3.5,-,N/A,,Clear,110,2013-10-29 16:35:00
12:55 PM,49.8,38.1,64,30.33,10.0,East,3.5,-,N/A,,Clear,100,2013-10-29 16:55:00
1:15 PM,50.5,38.5,63,30.32,10.0,ESE,3.5,-,N/A,,Clear,110,2013-10-29 17:15:00
1:35 PM,51.1,38.5,62,30.31,10.0,ESE,5.8,-,N/A,,Clear,110,2013-10-29 17:35:00
1:55 PM,51.8,39.0,62,30.30,10.0,SE,4.6,-,N/A,,Clear,140,2013-10-29 17:55:00
2:15 PM,52.5,38.8,60,30.28,10.0,ESE,3.5,-,N/A,,Clear,110,2013-10-29 18:15:00
2:35 PM,53.2,38.7,58,30.27,10.0,ESE,4.6,-,N/A,,Clear,120,2013-10-29 18:35:00
2:55 PM,53.6,38.3,56,30.26,10.0,ESE,4.6,-,N/A,,Clear,120,2013-10-29 18:55:00
3:15 PM,54.1,38.7,56,30.25,10.0,SE,4.6,-,N/A,,Clear,130,2013-10-29 19:15:00
3:35 PM,54.7,38.5,54,30.24,10.0,SE,4.6,-,N/A,,Clear,130,2013-10-29 19:35:00
3:55 PM,56.5,38.7,51,30.25,10.0,SE,5.8,-,N/A,,Clear,130,2013-10-29 19:55:00
4:15 PM,57.0,38.5,50,30.24,10.0,ESE,4.6,-,N/A,,Clear,120,2013-10-29 20:15:00
4:35 PM,57.7,39.0,50,30.24,10.0,ESE,4.6,-,N/A,,Clear,110,2013-10-29 20:35:00
4:55 PM,58.1,39.4,50,30.23,10.0,SE,5.8,-,N/A,,Clear,130,2013-10-29 20:55:00
5:15 PM,56.7,39.4,52,30.23,10.0,SE,3.5,-,N/A,,Clear,130,2013-10-29 21:15:00
5:35 PM,56.3,39.6,53,30.23,10.0,SE,4.6,-,N/A,,Mostly Cloudy,140,2013-10-29 21:35:00
5:55 PM,56.1,40.1,55,30.23,10.0,SE,3.5,-,N/A,,Overcast,130,2013-10-29 21:55:00
6:15 PM,55.4,40.1,56,30.23,10.0,Calm,Calm,-,N/A,,Overcast,0,2013-10-29 22:15:00
6:35 PM,54.7,40.1,58,30.23,10.0,East,3.5,-,N/A,,Overcast,100,2013-10-29 22:35:00
6:55 PM,53.8,39.7,59,30.21,10.0,ESE,4.6,-,N/A,,Overcast,110,2013-10-29 22:55:00
7:15 PM,53.6,40.1,60,30.21,10.0,ESE,3.5,-,N/A,,Overcast,120,2013-10-29 23:15:00
7:35 PM,53.6,40.1,60,30.21,10.0,SE,3.5,-,N/A,,Overcast,130,2013-10-29 23:35:00
7:55 PM,53.6,39.9,60,30.21,10.0,ESE,3.5,-,N/A,,Overcast,110,2013-10-29 23:55:00
8:15 PM,53.1,40.1,61,30.22,10.0,ESE,3.5,-,N/A,,Overcast,110,2013-10-30 00:15:00
8:35 PM,52.9,40.1,62,30.22,10.0,East,3.5,-,N/A,,Overcast,100,2013-10-30 00:35:00
8:55 PM,52.7,40.1,62,30.21,10.0,Calm,Calm,-,N/A,,Overcast,0,2013-10-30 00:55:00
9:15 PM,52.7,40.1,62,30.21,10.0,ESE,3.5,-,N/A,,Overcast,110,2013-10-30 01:15:00
9:35 PM,52.3,40.6,64,30.22,10.0,SSE,3.5,-,N/A,,Overcast,160,2013-10-30 01:35:00
9:55 PM,52.2,40.8,65,30.22,10.0,Calm,Calm,-,N/A,,Overcast,0,2013-10-30 01:55:00
10:15 PM,52.2,41.0,66,30.21,10.0,SE,3.5,-,N/A,Rain,Light Rain,140,2013-10-30 02:15:00
10:35 PM,51.8,41.4,68,30.22,10.0,SSE,3.5,-,N/A,,Overcast,150,2013-10-30 02:35:00
10:55 PM,51.8,41.4,68,30.22,10.0,Calm,Calm,-,N/A,,Overcast,0,2013-10-30 02:55:00
11:15 PM,51.8,41.9,69,30.22,10.0,Calm,Calm,-,N/A,Rain,Rain,0,2013-10-30 03:15:00
11:35 PM,51.1,42.8,73,30.21,10.0,Calm,Calm,-,N/A,,Overcast,0,2013-10-30 03:35:00
11:55 PM,50.7,43.2,75,30.19,10.0,Calm,Calm,-,N/A,Rain,Light Rain,0,2013-10-30 03:55:00